Time;durP1;ratioP1;P1;durP2;ratioP2;P2;SDS_P1;SDS_P2;PMS_P1;PMS_P2;Temp;Humidity;BMP_temperature;BMP_pressure;BME280_temperature;BME280_humidity;BME280_pressure;Samples;Min_cycle;Max_cycle;Signal;HPM_P1;HPM_P2
2022/09/11 00:00:29;;;;;;;28.23;12.23;;;14.90;99.90;;;;;;5092303;28;20052;-85
2022/09/11 00:02:54;;;;;;;27.33;12.40;;;14.90;99.90;;;;;;5092112;28;20066;-83
2022/09/11 00:05:20;;;;;;;26.75;12.02;;;14.90;99.90;;;;;;5092819;28;20051;-81
2022/09/11 00:07:46;;;;;;;25.23;12.15;;;14.90;99.90;;;;;;5080088;28;20082;-83
2022/09/11 00:10:13;;;;;;;27.58;12.32;;;14.90;99.90;;;;;;5068296;28;20890;-83
2022/09/11 00:12:38;;;;;;;;;;;14.80;99.90;;;;;;5088105;28;20047;-82
2022/09/11 00:15:04;;;;;;;27.90;9.95;;;14.80;99.90;;;;;;5125554;28;19930;-83
2022/09/11 00:17:30;;;;;;;23.58;10.10;;;14.70;99.90;;;;;;5092022;28;20039;-82
2022/09/11 00:19:56;;;;;;;28.65;11.75;;;14.70;99.90;;;;;;5092632;28;20541;-82
2022/09/11 00:22:21;;;;;;;30.27;12.65;;;14.60;99.90;;;;;;5090367;28;20443;-82
2022/09/11 00:24:47;;;;;;;27.17;11.80;;;14.60;99.90;;;;;;5089516;28;20509;-83
2022/09/11 00:27:13;;;;;;;31.75;11.63;;;14.60;99.90;;;;;;5078024;28;20127;-82
2022/09/11 00:29:38;;;;;;;30.73;11.77;;;14.60;99.90;;;;;;5106514;28;20055;-82
2022/09/11 00:32:04;;;;;;;29.33;11.82;;;14.60;99.90;;;;;;5088604;28;20388;-82
2022/09/11 00:34:30;;;;;;;23.08;10.68;;;14.60;99.90;;;;;;5089176;28;20516;-82
2022/09/11 00:36:56;;;;;;;22.42;8.43;;;14.60;99.90;;;;;;5070552;28;20062;-82
2022/09/11 00:39:22;;;;;;;18.20;8.50;;;14.50;99.90;;;;;;5087824;28;20048;-83
2022/09/11 00:41:48;;;;;;;21.70;9.55;;;14.40;99.90;;;;;;5092650;28;20047;-82
2022/09/11 00:44:17;;;;;;;22.85;9.82;;;14.30;99.90;;;;;;5092365;28;20083;-82
2022/09/11 00:46:52;;;;;;;30.35;12.27;;;14.20;99.90;;;;;;5092077;28;20576;-82
2022/09/11 00:49:41;;;;;;;30.77;11.77;;;14.20;99.90;;;;;;5075393;28;20095;-82
2022/09/11 00:52:29;;;;;;;27.15;11.75;;;14.20;99.90;;;;;;5088425;28;20042;-82
2022/09/11 00:55:11;;;;;;;34.70;13.15;;;14.30;99.90;;;;;;5092534;28;20066;-80
2022/09/11 00:57:48;;;;;;;21.05;9.23;;;14.30;99.90;;;;;;5092485;28;20146;-81
2022/09/11 01:00:14;;;;;;;18.88;8.05;;;14.30;99.90;;;;;;5095109;28;20126;-80
2022/09/11 01:02:45;;;;;;;27.63;11.70;;;14.30;99.90;;;;;;5078916;28;20126;-80
2022/09/11 01:05:11;;;;;;;21.73;9.05;;;14.30;99.90;;;;;;5092191;28;20044;-80
2022/09/11 01:07:39;;;;;;;64.28;7.88;;;14.20;99.90;;;;;;5090991;28;20051;-80
2022/09/11 01:10:06;;;;;;;71.70;9.13;;;14.20;99.90;;;;;;5108967;28;20580;-80
2022/09/11 01:13:29;;;;;;;120.40;9.90;;;14.10;99.90;;;;;;5113952;27;20048;-80
2022/09/11 01:16:04;;;;;;;59.60;6.95;;;14.10;99.90;;;;;;5050437;28;20049;-81
2022/09/11 01:18:37;;;;;;;32.15;7.00;;;14.20;99.90;;;;;;5050915;28;20509;-80
2022/09/11 01:21:03;;;;;;;22.85;8.15;;;13.90;99.90;;;;;;5055999;28;20458;-79
2022/09/11 01:23:59;;;;;;;25.42;10.00;;;13.80;99.90;;;;;;5077696;28;20127;-80
2022/09/11 01:26:43;;;;;;;52.05;13.05;;;13.80;99.90;;;;;;5108571;28;20143;-80
2022/09/11 01:29:30;;;;;;;52.10;12.95;;;13.80;99.90;;;;;;5058290;28;20082;-80
2022/09/11 01:32:04;;;;;;;57.87;13.33;;;13.80;99.90;;;;;;5074993;28;20405;-81
2022/09/11 01:34:57;;;;;;;83.53;13.48;;;13.90;99.90;;;;;;5075248;28;20370;-80
2022/09/11 01:37:38;;;;;;;76.35;13.75;;;13.90;99.90;;;;;;5056168;28;21003;-80
2022/09/11 01:40:15;;;;;;;48.55;10.93;;;13.90;99.90;;;;;;5074747;28;20044;-80
2022/09/11 01:42:44;;;;;;;46.55;11.60;;;13.90;99.90;;;;;;5085734;28;20369;-81
2022/09/11 01:45:12;;;;;;;89.72;12.90;;;13.90;99.90;;;;;;5094901;28;20051;-80
2022/09/11 01:47:41;;;;;;;85.78;14.38;;;13.90;99.90;;;;;;5082075;28;20082;-80
2022/09/11 01:50:09;;;;;;;56.13;12.07;;;13.90;99.90;;;;;;5108300;28;20350;-80
2022/09/11 01:52:49;;;;;;;47.50;10.98;;;13.90;99.90;;;;;;5080274;28;20048;-80
2022/09/11 01:55:21;;;;;;;41.20;9.57;;;13.90;99.90;;;;;;5100853;28;20489;-80
2022/09/11 01:58:02;;;;;;;36.38;10.23;;;13.60;99.90;;;;;;5074916;28;20052;-80
2022/09/11 02:00:30;;;;;;;55.10;12.45;;;13.80;99.90;;;;;;5120317;27;20090;-80
2022/09/11 02:03:09;;;;;;;59.80;11.77;;;13.70;99.90;;;;;;5112612;27;20036;-80
2022/09/11 02:05:52;;;;;;;48.13;9.82;;;13.70;99.90;;;;;;5074509;28;20085;-80
2022/09/11 02:08:36;;;;;;;34.60;10.95;;;13.60;99.90;;;;;;5056353;28;20097;-80
2022/09/11 02:11:06;;;;;;;63.63;10.40;;;13.60;99.90;;;;;;5091289;28;20077;-80
2022/09/11 02:13:41;;;;;;;45.40;10.93;;;13.80;99.90;;;;;;5094937;28;20236;-80
2022/09/11 02:16:17;;;;;;;49.35;10.38;;;13.60;99.90;;;;;;5076767;28;20090;-80
2022/09/11 02:18:56;;;;;;;77.60;12.70;;;13.60;99.90;;;;;;5112942;28;20055;-80
2022/09/11 02:21:21;;;;;;;38.50;10.32;;;13.60;99.90;;;;;;5092127;28;20943;-80
2022/09/11 02:23:48;;;;;;;57.58;10.98;;;13.60;99.90;;;;;;5094607;28;20092;-80
2022/09/11 02:26:17;;;;;;;69.85;9.82;;;13.50;99.90;;;;;;5061878;28;20044;-80
2022/09/11 02:28:43;;;;;;;46.42;10.05;;;13.50;99.90;;;;;;5074997;28;20087;-80
2022/09/11 02:31:08;;;;;;;49.40;10.50;;;13.40;99.90;;;;;;5072867;28;20481;-80
2022/09/11 02:33:36;;;;;;;46.75;9.68;;;13.40;99.90;;;;;;5078358;28;20048;-80
2022/09/11 02:36:31;;;;;;;41.20;10.80;;;13.30;99.90;;;;;;5092042;28;20052;-80
2022/09/11 02:39:14;;;;;;;42.88;10.05;;;13.30;99.90;;;;;;5083174;28;20079;-81
2022/09/11 02:42:05;;;;;;;46.53;11.27;;;13.30;99.90;;;;;;5107325;28;20051;-80
2022/09/11 02:44:50;;;;;;;48.10;11.00;;;13.30;99.90;;;;;;5090108;28;20051;-80
2022/09/11 02:47:25;;;;;;;43.00;10.38;;;13.30;99.90;;;;;;5073367;28;20129;-80
2022/09/11 02:49:57;;;;;;;53.80;10.90;;;13.30;99.90;;;;;;5092691;28;20043;-82
2022/09/11 02:53:01;;;;;;;33.13;12.02;;;13.40;99.90;;;;;;5125670;27;20047;-81
2022/09/11 02:55:35;;;;;;;49.63;11.02;;;13.40;99.90;;;;;;5093376;28;20052;-79
2022/09/11 02:58:06;;;;;;;49.75;10.93;;;13.40;99.90;;;;;;5127952;27;20481;-80
2022/09/11 03:00:32;;;;;;;29.65;10.30;;;13.40;99.90;;;;;;5091558;28;20043;-79
2022/09/11 03:02:58;;;;;;;39.83;10.45;;;13.70;99.90;;;;;;5107153;28;20048;-79
2022/09/11 03:05:23;;;;;;;73.10;10.57;;;13.40;99.90;;;;;;5090023;28;20087;-80
2022/09/11 03:07:49;;;;;;;33.67;10.07;;;13.50;99.90;;;;;;5088587;28;20056;-79
2022/09/11 03:10:15;;;;;;;27.75;9.35;;;13.50;99.90;;;;;;5074187;28;20040;-79
2022/09/11 03:12:41;;;;;;;51.40;10.75;;;13.50;99.90;;;;;;5107031;28;20052;-79
2022/09/11 03:15:09;;;;;;;41.20;10.35;;;13.40;99.90;;;;;;5107157;28;20091;-79
2022/09/11 03:17:35;;;;;;;69.07;10.77;;;13.50;99.90;;;;;;5118654;27;20087;-79
2022/09/11 03:20:01;;;;;;;44.30;10.52;;;13.40;99.90;;;;;;5093693;28;20530;-79
2022/09/11 03:22:26;;;;;;;;;;;13.40;99.90;;;;;;5090780;28;20151;-79
2022/09/11 03:24:52;;;;;;;68.90;9.93;;;13.40;99.90;;;;;;5127712;27;20027;-79
2022/09/11 03:27:18;;;;;;;59.20;10.20;;;13.30;99.90;;;;;;5093030;28;20385;-79
2022/09/11 03:29:43;;;;;;;52.83;9.85;;;13.30;99.90;;;;;;5107094;28;20132;-79
2022/09/11 03:32:09;;;;;;;75.18;10.07;;;13.20;99.90;;;;;;5086806;28;20104;-78
2022/09/11 03:34:35;;;;;;;34.05;9.27;;;13.10;99.90;;;;;;5092624;28;20109;-79
2022/09/11 03:37:01;;;;;;;47.60;10.10;;;13.30;99.90;;;;;;5086864;28;20052;-79
2022/09/11 03:39:27;;;;;;;65.40;10.32;;;13.00;99.90;;;;;;5106595;28;20055;-79
2022/09/11 03:41:53;;;;;;;86.18;10.60;;;13.00;99.90;;;;;;5106441;28;20121;-79
2022/09/11 03:44:19;;;;;;;53.58;10.05;;;12.90;99.90;;;;;;5072549;28;20043;-80
2022/09/11 03:46:45;;;;;;;56.05;9.60;;;12.80;99.90;;;;;;5111765;28;20175;-79
2022/09/11 03:49:10;;;;;;;80.85;10.07;;;12.90;99.90;;;;;;5076484;28;20052;-79
2022/09/11 03:51:36;;;;;;;49.80;8.88;;;12.80;99.90;;;;;;5088629;28;20074;-80
2022/09/11 03:54:03;;;;;;;29.60;9.57;;;12.80;99.90;;;;;;5113503;28;20055;-79
2022/09/11 03:56:29;;;;;;;76.28;8.85;;;12.80;99.90;;;;;;5073552;28;20071;-80
2022/09/11 03:58:56;;;;;;;;;;;12.90;99.90;;;;;;5073506;28;20048;-80
2022/09/11 04:01:22;;;;;;;21.42;7.63;;;12.70;99.90;;;;;;5106000;28;19927;-79
2022/09/11 04:03:48;;;;;;;36.25;9.27;;;12.60;99.90;;;;;;5072784;28;20482;-79
2022/09/11 04:06:15;;;;;;;30.60;7.93;;;12.60;99.90;;;;;;5087330;28;20055;-78
2022/09/11 04:08:41;;;;;;;22.40;8.88;;;12.60;99.90;;;;;;5092694;28;20051;-79
2022/09/11 04:11:08;;;;;;;20.70;8.68;;;12.60;99.90;;;;;;5109612;28;20066;-79
2022/09/11 04:13:37;;;;;;;19.73;8.73;;;12.60;99.90;;;;;;5072991;28;20621;-79
2022/09/11 04:16:09;;;;;;;22.63;9.23;;;12.60;99.90;;;;;;5092373;28;20131;-79
2022/09/11 04:18:38;;;;;;;16.05;8.48;;;12.60;99.90;;;;;;5092360;28;20051;-80
2022/09/11 04:21:06;;;;;;;16.70;8.50;;;12.60;99.90;;;;;;5091166;28;20126;-79
2022/09/11 04:23:32;;;;;;;22.52;9.52;;;12.70;99.90;;;;;;5092183;28;20126;-79
2022/09/11 04:25:59;;;;;;;23.73;9.52;;;12.80;99.90;;;;;;5075836;28;20056;-80
2022/09/11 04:28:28;;;;;;;29.15;9.07;;;12.70;99.90;;;;;;5072258;28;20169;-79
2022/09/11 04:30:55;;;;;;;22.42;8.80;;;12.80;99.90;;;;;;5072448;28;20512;-79
2022/09/11 04:33:23;;;;;;;19.75;8.65;;;12.90;99.90;;;;;;5072064;28;20058;-79
2022/09/11 04:35:49;;;;;;;56.50;9.68;;;12.90;99.90;;;;;;5086577;28;20056;-79
2022/09/11 04:38:15;;;;;;;27.50;10.43;;;13.00;99.90;;;;;;5088190;28;20123;-79
2022/09/11 04:40:40;;;;;;;36.78;9.45;;;12.90;99.90;;;;;;5075649;28;20044;-79
2022/09/11 04:43:06;;;;;;;16.55;8.77;;;12.90;99.90;;;;;;5118870;27;20058;-79
2022/09/11 04:45:32;;;;;;;;;;;12.90;99.90;;;;;;5084271;28;20091;-80
2022/09/11 04:48:01;;;;;;;28.30;8.23;;;12.90;99.90;;;;;;5075950;28;20404;-80
2022/09/11 04:50:28;;;;;;;27.23;8.82;;;12.80;99.90;;;;;;5109558;28;20059;-79
2022/09/11 04:52:54;;;;;;;36.28;8.38;;;12.80;99.90;;;;;;5108036;28;20063;-79
2022/09/11 04:55:19;;;;;;;18.05;9.18;;;12.70;99.90;;;;;;5075981;28;20052;-78
2022/09/11 04:57:45;;;;;;;23.70;8.07;;;12.70;99.90;;;;;;5075193;28;20058;-80
2022/09/11 05:00:12;;;;;;;18.17;8.02;;;12.60;99.90;;;;;;5076213;28;20051;-79
2022/09/11 05:02:39;;;;;;;18.95;8.05;;;12.60;99.90;;;;;;5095258;28;20063;-80
2022/09/11 05:05:05;;;;;;;18.70;8.07;;;12.60;99.90;;;;;;5087210;28;20449;-80
2022/09/11 05:07:31;;;;;;;15.05;7.28;;;12.50;99.90;;;;;;5073429;28;20052;-79
2022/09/11 05:09:57;;;;;;;17.17;7.28;;;12.40;99.90;;;;;;5075865;28;20066;-79
2022/09/11 05:12:23;;;;;;;14.75;7.25;;;12.40;99.90;;;;;;5078323;28;20043;-79
2022/09/11 05:14:50;;;;;;;36.70;8.00;;;12.40;99.90;;;;;;5079283;28;20051;-79
2022/09/11 05:17:15;;;;;;;17.95;7.60;;;12.40;99.90;;;;;;5094924;28;20051;-79
2022/09/11 05:19:42;;;;;;;16.45;7.22;;;12.40;99.90;;;;;;5078365;28;20052;-80
2022/09/11 05:22:08;;;;;;;16.60;7.22;;;12.40;99.90;;;;;;5092247;28;20585;-79
2022/09/11 05:24:33;;;;;;;14.70;7.53;;;12.40;99.90;;;;;;5095300;28;20126;-79
2022/09/11 05:27:00;;;;;;;14.55;7.32;;;12.30;99.90;;;;;;5079205;28;20081;-79
2022/09/11 05:29:27;;;;;;;48.08;8.68;;;12.30;99.90;;;;;;5108744;28;20055;-79
2022/09/11 05:31:59;;;;;;;53.97;7.72;;;12.30;99.90;;;;;;5075109;28;20056;-79
2022/09/11 05:34:27;;;;;;;37.35;9.90;;;12.30;99.90;;;;;;5074704;28;20051;-79
2022/09/11 05:36:57;;;;;;;48.17;9.63;;;12.30;99.90;;;;;;5107069;28;20495;-80
2022/09/11 05:39:23;;;;;;;38.53;8.63;;;12.30;99.90;;;;;;5077120;28;20120;-78
2022/09/11 05:41:52;;;;;;;28.65;8.65;;;12.30;99.90;;;;;;5091718;28;20058;-79
2022/09/11 05:44:18;;;;;;;70.35;8.98;;;12.40;99.90;;;;;;5074752;28;20063;-79
2022/09/11 05:46:44;;;;;;;32.47;7.80;;;12.40;99.90;;;;;;5068401;28;20048;-80
2022/09/11 05:49:10;;;;;;;87.45;8.90;;;12.40;99.90;;;;;;5075150;28;20378;-79
2022/09/11 05:51:36;;;;;;;53.25;9.73;;;12.40;99.90;;;;;;5072364;28;20054;-79
2022/09/11 05:54:02;;;;;;;;;;;12.30;99.90;;;;;;5092500;28;20058;-79
2022/09/11 05:56:28;;;;;;;54.30;8.38;;;12.30;99.90;;;;;;5075197;28;19920;-79
2022/09/11 05:58:55;;;;;;;62.88;8.85;;;12.30;99.90;;;;;;5078236;28;20130;-80
2022/09/11 06:01:26;;;;;;;57.58;8.75;;;12.30;99.90;;;;;;5091865;28;20449;-79
2022/09/11 06:03:52;;;;;;;58.30;9.73;;;12.30;99.90;;;;;;5076313;28;20075;-79
2022/09/11 06:06:20;;;;;;;47.63;9.23;;;12.30;99.90;;;;;;5083095;28;20400;-79
2022/09/11 06:08:47;;;;;;;97.85;9.75;;;12.60;99.90;;;;;;5071416;28;20104;-82
2022/09/11 06:11:14;;;;;;;68.55;8.63;;;12.30;99.90;;;;;;5094578;28;20512;-83
2022/09/11 06:13:45;;;;;;;45.33;8.27;;;12.30;99.90;;;;;;5094444;28;20043;-80
2022/09/11 06:16:13;;;;;;;19.13;6.88;;;12.40;99.90;;;;;;5094125;28;20416;-78
2022/09/11 06:18:39;;;;;;;27.35;7.72;;;12.40;99.90;;;;;;5094133;28;20044;-83
2022/09/11 06:21:09;;;;;;;25.67;8.50;;;12.40;99.90;;;;;;5093296;28;20043;-82
2022/09/11 06:23:36;;;;;;;21.55;7.32;;;12.40;99.90;;;;;;5093425;28;20044;-81
2022/09/11 06:26:09;;;;;;;17.52;7.72;;;12.40;99.90;;;;;;5074018;28;20131;-82
2022/09/11 06:28:35;;;;;;;21.45;7.65;;;12.40;99.90;;;;;;5073907;28;20040;-82
2022/09/11 06:31:06;;;;;;;14.88;7.10;;;12.50;99.90;;;;;;5057310;28;20052;-82
2022/09/11 06:33:34;;;;;;;14.40;7.03;;;12.50;99.90;;;;;;5073780;28;20272;-82
2022/09/11 06:36:03;;;;;;;19.80;7.35;;;12.50;99.90;;;;;;5106424;28;20052;-82
2022/09/11 06:38:30;;;;;;;33.40;7.22;;;12.60;99.90;;;;;;5072580;28;20047;-82
2022/09/11 06:40:56;;;;;;;15.75;7.45;;;12.60;99.90;;;;;;5088560;28;20465;-82
2022/09/11 06:43:22;;;;;;;15.15;8.02;;;12.70;99.90;;;;;;5093752;28;20059;-85
2022/09/11 06:45:48;;;;;;;15.82;7.43;;;12.80;99.90;;;;;;5072612;28;20055;-82
2022/09/11 06:48:18;;;;;;;12.90;7.30;;;;;;;;;;5091475;28;20397;-77
2022/09/11 06:50:44;;;;;;;14.32;7.57;;;12.90;99.90;;;;;;5093380;28;20373;-68
2022/09/11 06:53:10;;;;;;;;;;;13.00;99.90;;;;;;5090804;28;20511;-74
2022/09/11 06:55:39;;;;;;;14.00;7.03;;;13.10;99.90;;;;;;5110689;28;19930;-71
2022/09/11 06:58:05;;;;;;;15.68;8.07;;;13.20;99.90;;;;;;5084713;28;20050;-71
2022/09/11 07:00:31;;;;;;;14.00;7.47;;;13.20;99.90;;;;;;5089748;28;20039;-71
2022/09/11 07:02:57;;;;;;;14.93;8.15;;;13.30;99.90;;;;;;5107594;28;20043;-73
2022/09/11 07:05:24;;;;;;;15.90;8.43;;;13.40;99.90;;;;;;5107445;28;20120;-72
2022/09/11 07:07:56;;;;;;;16.15;8.80;;;13.40;99.90;;;;;;5105692;28;20047;-72
2022/09/11 07:10:22;;;;;;;18.48;8.32;;;13.50;99.90;;;;;;5108405;28;20058;-72
2022/09/11 07:12:50;;;;;;;15.18;9.05;;;13.60;99.90;;;;;;5107733;28;20044;-72
2022/09/11 07:15:16;;;;;;;18.20;8.73;;;13.70;99.90;;;;;;5105588;28;20073;-72
2022/09/11 07:17:42;;;;;;;14.73;7.88;;;13.80;99.90;;;;;;5107013;28;20638;-72
2022/09/11 07:20:09;;;;;;;18.23;8.43;;;13.90;99.90;;;;;;5108016;28;20499;-72
2022/09/11 07:22:35;;;;;;;16.35;7.82;;;13.90;99.90;;;;;;5104424;28;20043;-72
2022/09/11 07:25:01;;;;;;;18.27;9.05;;;14.00;99.90;;;;;;5090016;28;20556;-72
2022/09/11 07:27:27;;;;;;;17.40;9.10;;;14.00;99.90;;;;;;5107716;28;20058;-73
2022/09/11 07:29:53;;;;;;;18.75;9.27;;;14.20;99.90;;;;;;5089320;28;20158;-73
2022/09/11 07:32:19;;;;;;;17.05;9.05;;;14.30;99.90;;;;;;5107209;28;20254;-72
2022/09/11 07:34:46;;;;;;;20.30;9.75;;;14.40;99.90;;;;;;5106162;28;20126;-72
2022/09/11 07:37:12;;;;;;;17.15;8.70;;;14.40;99.90;;;;;;5103649;28;20484;-72
2022/09/11 07:39:38;;;;;;;18.73;8.63;;;14.50;99.90;;;;;;5088902;28;20366;-73
2022/09/11 07:42:06;;;;;;;17.38;8.77;;;14.70;99.90;;;;;;5106507;28;20058;-75
2022/09/11 07:44:32;;;;;;;18.45;9.55;;;14.80;99.90;;;;;;5072109;28;20039;-76
2022/09/11 07:46:59;;;;;;;15.55;8.68;;;14.90;99.90;;;;;;5088449;28;20047;-73
2022/09/11 07:49:26;;;;;;;17.30;8.70;;;15.00;99.90;;;;;;5087932;28;20100;-72
2022/09/11 07:51:53;;;;;;;17.02;9.48;;;15.10;99.90;;;;;;5103850;28;20086;-72
2022/09/11 07:54:20;;;;;;;19.23;9.20;;;15.10;99.90;;;;;;5088006;28;20044;-72
2022/09/11 07:56:47;;;;;;;17.70;8.70;;;15.20;99.90;;;;;;5105718;28;20070;-72
2022/09/11 07:59:13;;;;;;;19.20;9.38;;;15.30;99.90;;;;;;5106186;28;20096;-72
2022/09/11 08:01:41;;;;;;;16.77;9.43;;;15.40;99.90;;;;;;5105523;28;20566;-72
2022/09/11 08:04:10;;;;;;;18.15;9.65;;;15.50;99.90;;;;;;5122170;28;20106;-72
2022/09/11 08:06:37;;;;;;;20.60;10.18;;;15.60;99.90;;;;;;5104703;28;20064;-72
2022/09/11 08:09:06;;;;;;;22.10;9.95;;;15.70;99.90;;;;;;5095247;28;20068;-83
2022/09/11 08:11:36;;;;;;;19.17;10.05;;;15.80;99.90;;;;;;5095981;28;20040;-83
2022/09/11 08:14:02;;;;;;;20.95;9.95;;;15.90;99.90;;;;;;5096163;28;20035;-85
2022/09/11 08:16:28;;;;;;;21.30;11.00;;;;;;;;;;5078727;28;20043;-82
2022/09/11 08:18:54;;;;;;;20.98;10.57;;;16.10;99.90;;;;;;5091367;28;20149;-73
2022/09/11 08:21:21;;;;;;;18.25;9.48;;;16.30;99.90;;;;;;5110577;28;20464;-69
2022/09/11 08:23:47;;;;;;;16.75;8.85;;;16.50;99.90;;;;;;5093173;28;20043;-69
2022/09/11 08:26:21;;;;;;;19.90;10.60;;;16.60;99.90;;;;;;5112996;28;20043;-73
2022/09/11 08:28:49;;;;;;;20.08;10.88;;;16.70;99.90;;;;;;5113393;28;20047;-73
2022/09/11 08:31:16;;;;;;;19.10;10.23;;;16.80;99.90;;;;;;5113777;28;20140;-73
2022/09/11 08:33:42;;;;;;;18.70;10.07;;;17.00;99.90;;;;;;5091647;28;20408;-73
2022/09/11 08:36:13;;;;;;;16.65;9.18;;;17.20;99.90;;;;;;5109142;28;20059;-73
2022/09/11 08:38:39;;;;;;;19.88;10.65;;;17.40;99.90;;;;;;5110805;28;20135;-73
2022/09/11 08:41:35;;;;;;;18.42;9.13;;;17.50;99.90;;;;;;5110657;28;20040;-74
2022/09/11 08:44:10;;;;;;;15.30;7.45;;;17.70;99.90;;;;;;5085579;28;20056;-73
2022/09/11 08:46:40;;;;;;;15.38;6.90;;;17.80;99.90;;;;;;5092503;28;20047;-73
2022/09/11 08:49:14;;;;;;;12.85;6.78;;;18.00;99.90;;;;;;5108851;28;20176;-73
2022/09/11 08:51:41;;;;;;;13.25;8.00;;;18.10;99.90;;;;;;5088244;28;20082;-73
2022/09/11 08:54:30;;;;;;;11.15;6.05;;;18.20;99.90;;;;;;5110031;28;20040;-73
2022/09/11 08:57:15;;;;;;;14.73;7.03;;;18.30;99.90;;;;;;5091546;28;20047;-74
2022/09/11 09:00:09;;;;;;;10.85;5.85;;;18.50;99.90;;;;;;5109981;28;20051;-74
2022/09/11 09:02:44;;;;;;;9.48;5.22;;;18.60;99.90;;;;;;5112051;28;20047;-73
2022/09/11 09:05:19;;;;;;;9.50;5.20;;;18.80;99.90;;;;;;5096404;28;20408;-85
2022/09/11 09:08:06;;;;;;;13.20;5.72;;;;;;;;;;5092099;28;20051;-83
2022/09/11 09:10:38;;;;;;;10.48;5.35;;;;;;;;;;5088574;28;20054;-75
2022/09/11 09:13:11;;;;;;;13.23;5.93;;;;;;;;;;5091404;28;20050;-76
2022/09/11 09:15:56;;;;;;;8.70;5.05;;;;;;;;;;5093288;28;20048;-83
2022/09/11 09:18:31;;;;;;;11.85;5.78;;;;;;;;;;5091205;28;20043;-79
2022/09/11 09:21:12;;;;;;;13.30;6.53;;;;;;;;;;5092772;28;20055;-85
2022/09/11 09:23:44;;;;;;;11.20;6.43;;;;;;;;;;5101989;28;20051;-87
2022/09/11 09:26:16;;;;;;;9.98;5.43;;;;;;;;;;5077716;28;20040;-87
2022/09/11 09:28:46;;;;;;;10.48;4.22;;;;;;;;;;5072536;28;20043;-86
2022/09/11 09:31:13;;;;;;;7.90;4.00;;;;;;;;;;5078329;28;20446;-87
2022/09/11 09:33:45;;;;;;;7.53;3.78;;;;;;;;;;5093055;28;20051;-87
2022/09/11 09:36:14;;;;;;;7.93;3.65;;;;;;;;;;5093221;28;20062;-87
2022/09/11 09:38:40;;;;;;;8.68;3.83;;;;;;;;;;5095487;28;20071;-87
2022/09/11 09:41:06;;;;;;;9.88;3.78;;;;;;;;;;5094830;28;20055;-87
2022/09/11 09:43:32;;;;;;;;;;;;;;;;;;5081611;28;20168;-87
2022/09/11 09:46:18;;;;;;;7.45;3.58;;;;;;;;;;5094870;28;19931;-87
2022/09/11 09:48:44;;;;;;;5.65;3.15;;;;;;;;;;5094933;28;20058;-87
2022/09/11 09:51:14;;;;;;;5.60;2.80;;;;;;;;;;5076410;28;20355;-86
2022/09/11 09:53:52;;;;;;;5.45;2.70;;;;;;;;;;5088984;28;20055;-88
2022/09/11 09:56:18;;;;;;;7.60;3.00;;;;;;;;;;5094265;28;20050;-85
2022/09/11 09:59:07;;;;;;;6.65;3.00;;;;;;;;;;5111781;28;20134;-86
2022/09/11 10:01:43;;;;;;;5.13;2.85;;;;;;;;;;5114122;27;20126;-86
2022/09/11 10:04:26;;;;;;;6.20;2.83;;;;;;;;;;5068579;28;20074;-86
2022/09/11 10:06:54;;;;;;;7.85;3.17;;;;;;;;;;5087650;28;20138;-87
2022/09/11 10:09:27;;;;;;;5.45;2.95;;;;;;;;;;5095244;28;20044;-87
2022/09/11 10:12:01;;;;;;;8.52;3.30;;;;;;;;;;5094620;28;20047;-85
2022/09/11 10:14:28;;;;;;;6.53;3.30;;;;;;;;;;5112262;28;20058;-86
2022/09/11 10:16:55;;;;;;;7.30;3.20;;;;;;;;;;5094158;28;20112;-86
2022/09/11 10:19:36;;;;;;;9.52;3.30;;;;;;;;;;5086726;28;20048;-86
2022/09/11 10:22:21;;;;;;;7.05;3.15;;;;;;;;;;5072532;28;20080;-87
2022/09/11 10:24:52;;;;;;;6.00;2.58;;;;;;;;;;5074569;28;20135;-87
2022/09/11 10:27:18;;;;;;;6.05;2.67;;;;;;;;;;5074787;28;20052;-85
2022/09/11 10:29:49;;;;;;;5.72;3.00;;;;;;;;;;5075085;28;20452;-85
2022/09/11 10:32:17;;;;;;;5.60;3.10;;;;;;;;;;5074223;28;20055;-85
2022/09/11 10:34:43;;;;;;;9.60;4.72;;;;;;;;;;5074359;28;21173;-85
2022/09/11 10:37:12;;;;;;;9.40;4.28;;;;;;;;;;5072811;28;20400;-84
2022/09/11 10:39:40;;;;;;;9.82;4.22;;;;;;;;;;5074973;28;20374;-85
2022/09/11 10:42:15;;;;;;;7.03;3.20;;;;;;;;;;5080402;28;20044;-85
2022/09/11 10:44:43;;;;;;;8.48;3.80;;;;;;;;;;5074792;28;20131;-85
2022/09/11 10:47:22;;;;;;;8.77;3.80;;;;;;;;;;5074135;28;20046;-85
2022/09/11 10:49:48;;;;;;;8.25;4.00;;;;;;;;;;5074644;28;20044;-86
2022/09/11 10:52:14;;;;;;;6.93;3.63;;;;;;;;;;5073456;28;20076;-84
2022/09/11 10:55:00;;;;;;;6.63;3.45;;;;;;;;;;5074712;28;20051;-84
2022/09/11 10:57:44;;;;;;;4.77;2.43;;;;;;;;;;5074447;28;20058;-83
2022/09/11 11:00:14;;;;;;;5.57;2.80;;;;;;;;;;5057843;28;20355;-84
2022/09/11 11:02:46;;;;;;;8.50;3.55;;;;;;;;;;5074523;28;20048;-84
2022/09/11 11:05:29;;;;;;;6.18;3.10;;;;;;;;;;5074339;28;20081;-84
2022/09/11 11:07:58;;;;;;;8.18;3.47;;;;;;;;;;5075228;28;20048;-84
2022/09/11 11:10:36;;;;;;;9.43;3.80;;;;;;;;;;5094972;28;20079;-84
2022/09/11 11:13:21;;;;;;;9.30;3.85;;;;;;;;;;5094256;28;20096;-85
2022/09/11 11:15:47;;;;;;;7.45;3.80;;;;;;;;;;5077558;28;20092;-85
2022/09/11 11:18:21;;;;;;;7.75;3.03;;;;;;;;;;5093962;28;20097;-84
2022/09/11 11:21:13;;;;;;;8.38;2.97;;;;;;;;;;5094750;28;20134;-86
2022/09/11 11:23:52;;;;;;;5.30;2.78;;;;;;;;;;5111888;27;20062;-85
2022/09/11 11:26:18;;;;;;;4.57;2.47;;;;;;;;;;5076931;28;20046;-84
2022/09/11 11:28:53;;;;;;;5.60;2.33;;;;;;;;;;5093422;28;20450;-84
2022/09/11 11:31:25;;;;;;;5.10;2.42;;;;;;;;;;5093891;28;20393;-84
2022/09/11 11:34:02;;;;;;;6.55;2.95;;;;;;;;;;5094252;28;20079;-87
2022/09/11 11:36:33;;;;;;;5.25;2.40;;;;;;;;;;5076090;28;20051;-84
2022/09/11 11:39:06;;;;;;;5.22;2.63;;;;;;;;;;5077451;28;20098;-83
2022/09/11 11:41:34;;;;;;;3.60;2.20;;;;;;;;;;5094203;28;20043;-84
2022/09/11 11:44:06;;;;;;;4.60;2.15;;;;;;;;;;5093584;28;20047;-83
2022/09/11 11:46:37;;;;;;;2.88;1.98;;;;;;;;;;5094236;28;20076;-83
2022/09/11 11:49:18;;;;;;;5.38;2.55;;;;;;;;;;5088336;28;20051;-83
2022/09/11 11:51:51;;;;;;;3.50;1.90;;;;;;;;;;5056804;28;20135;-83
2022/09/11 11:54:30;;;;;;;5.78;2.67;;;;;;;;;;5077460;28;20090;-83
2022/09/11 11:56:59;;;;;;;5.43;1.90;;;;;;;;;;5093895;28;20047;-84
2022/09/11 11:59:44;;;;;;;4.10;1.92;;;;;;;;;;5094784;28;20674;-82
2022/09/11 12:02:15;;;;;;;6.78;2.90;;;;;;;;;;5094170;28;20133;-83
2022/09/11 12:04:41;;;;;;;3.97;2.08;;;;;;;;;;5094830;28;20113;-83
2022/09/11 12:07:15;;;;;;;9.82;2.55;;;;;;;;;;5076681;28;20035;-83
2022/09/11 12:09:45;;;;;;;5.22;2.08;;;;;;;;;;5074241;28;20048;-83
2022/09/11 12:12:12;;;;;;;6.15;2.47;;;;;;;;;;5088088;28;20047;-83
2022/09/11 12:14:47;;;;;;;3.70;2.10;;;;;;;;;;5094817;28;20048;-82
2022/09/11 12:17:18;;;;;;;4.78;1.73;;;;;;;;;;5093763;28;20163;-83
2022/09/11 12:20:03;;;;;;;3.22;1.60;;;;;;;;;;5078039;28;20094;-82
2022/09/11 12:22:37;;;;;;;3.80;1.65;;;;;;;;;;5093660;28;20481;-82
2022/09/11 12:25:04;;;;;;;3.42;1.90;;;;;;;;;;5094349;28;20056;-82
2022/09/11 12:27:33;;;;;;;3.92;1.75;;;;;;;;;;5094603;28;20043;-82
2022/09/11 12:30:08;;;;;;;2.75;1.55;;;;;;;;;;5077695;28;20047;-83
2022/09/11 12:32:48;;;;;;;3.35;1.90;;;;;;;;;;5076247;28;20060;-82
2022/09/11 12:35:33;;;;;;;4.95;2.03;;;;;;;;;;5072205;28;20129;-82
2022/09/11 12:37:59;;;;;;;2.40;1.60;;;;;;;;;;5070323;28;20047;-66
2022/09/11 12:40:32;;;;;;;2.97;1.67;;;;;;;;;;5102870;28;20123;-64
2022/09/11 12:43:17;;;;;;;4.10;1.73;;;;;;;;;;5091474;28;20075;-66
2022/09/11 12:45:43;;;;;;;2.65;1.30;;;;;;;;;;5109872;28;20047;-64
2022/09/11 12:48:11;;;;;;;2.97;1.30;;;;;;;;;;5110034;28;20130;-81
2022/09/11 12:50:38;;;;;;;3.83;1.40;;;;;;;;;;5093311;28;20078;-82
2022/09/11 12:53:10;;;;;;;4.72;1.52;;;30.40;82.30;;;;;;5073630;28;20043;-81
2022/09/11 12:55:51;;;;;;;2.58;1.52;;;31.00;79.40;;;;;;5092680;28;20091;-79
2022/09/11 12:58:19;;;;;;;2.55;1.33;;;31.10;75.30;;;;;;5112062;28;20051;-67
2022/09/11 13:00:48;;;;;;;2.10;1.40;;;31.80;76.30;;;;;;5114145;28;20043;-76
2022/09/11 13:03:23;;;;;;;2.38;1.30;;;32.10;71.80;;;;;;5092880;28;20083;-77
2022/09/11 13:06:02;;;;;;;3.65;1.70;;;32.10;67.40;;;;;;5092757;28;20442;-77
2022/09/11 13:08:33;;;;;;;1.77;1.08;;;32.60;64.70;;;;;;5102855;28;20066;-76
2022/09/11 13:11:34;;;;;;;1.92;0.90;;;33.20;67.40;;;;;;5112901;28;20556;-75
2022/09/11 13:14:00;;;;;;;2.25;0.80;;;33.50;58.30;;;;;;5095226;28;20051;-74
2022/09/11 13:16:30;;;;;;;2.58;1.20;;;32.70;64.90;;;;;;5099216;28;20085;-73
2022/09/11 13:19:15;;;;;;;3.63;1.10;;;31.40;64.50;;;;;;5095213;28;20044;-76
2022/09/11 13:21:43;;;;;;;4.47;1.08;;;30.30;62.20;;;;;;5109888;28;20087;-73
2022/09/11 13:24:33;;;;;;;1.10;0.98;;;29.40;65.80;;;;;;5091729;28;20101;-73
2022/09/11 13:27:01;;;;;;;2.05;1.33;;;28.00;63.70;;;;;;5077785;28;20109;-74